Time;durP1;ratioP1;P1;durP2;ratioP2;P2;SDS_P1;SDS_P2;PMS_P1;PMS_P2;Temp;Humidity;BMP_temperature;BMP_pressure;BME280_temperature;BME280_humidity;BME280_pressure;Samples;Min_cycle;Max_cycle;Signal;HPM_P1;HPM_P2
2022/05/11 00:01:00;;;;;;;9.35;8.45;;;20.50;81.00;;;;;;5012033;28;20030;-77
2022/05/11 00:03:26;;;;;;;9.10;8.30;;;20.50;81.10;;;;;;4994748;28;20613;-76
2022/05/11 00:05:51;;;;;;;9.77;8.75;;;20.60;81.10;;;;;;4978325;28;20045;-76
2022/05/11 00:08:18;;;;;;;10.07;9.07;;;20.60;81.70;;;;;;4993847;28;20026;-74
2022/05/11 00:10:43;;;;;;;10.15;9.27;;;20.60;81.70;;;;;;5012129;28;20414;-74
2022/05/11 00:13:09;;;;;;;10.98;9.93;;;20.50;81.50;;;;;;5012588;28;20049;-75
2022/05/11 00:15:36;;;;;;;10.75;9.68;;;20.50;81.70;;;;;;5011317;28;20037;-75
2022/05/11 00:18:02;;;;;;;11.02;10.02;;;20.40;82.00;;;;;;4994305;28;20062;-75
2022/05/11 00:20:28;;;;;;;12.20;11.00;;;20.40;82.20;;;;;;5010266;28;20054;-76
2022/05/11 00:22:54;;;;;;;11.65;10.18;;;20.20;82.60;;;;;;4987199;28;20594;-74
2022/05/11 00:25:24;;;;;;;11.27;10.10;;;20.20;82.80;;;;;;5002059;28;20038;-77
2022/05/11 00:27:54;;;;;;;11.75;10.70;;;20.10;83.00;;;;;;4985784;28;20416;-76
2022/05/11 00:30:20;;;;;;;11.52;10.50;;;20.00;83.30;;;;;;4985975;28;20030;-76
2022/05/11 00:32:46;;;;;;;11.55;10.05;;;20.00;83.20;;;;;;5004669;28;20058;-75
2022/05/11 00:35:12;;;;;;;11.63;10.50;;;20.00;83.70;;;;;;5005007;28;20046;-76
2022/05/11 00:37:37;;;;;;;11.57;10.43;;;19.90;83.80;;;;;;5004081;28;20052;-76
2022/05/11 00:40:04;;;;;;;13.77;11.27;;;19.90;84.00;;;;;;4983839;28;20034;-75
2022/05/11 00:42:30;;;;;;;11.68;10.68;;;19.80;84.20;;;;;;4973758;28;20038;-76
2022/05/11 00:44:56;;;;;;;11.32;10.27;;;19.80;84.40;;;;;;4984588;28;20034;-75
2022/05/11 00:47:36;;;;;;;12.32;10.95;;;19.80;84.50;;;;;;5003071;28;20035;-76
2022/05/11 00:50:28;;;;;;;12.15;10.52;;;19.60;84.80;;;;;;5004996;28;20018;-76
2022/05/11 00:53:11;;;;;;;11.57;10.38;;;19.60;85.30;;;;;;4982453;28;20102;-75
2022/05/11 00:55:43;;;;;;;11.63;10.50;;;19.60;85.00;;;;;;4951109;28;20039;-76
2022/05/11 00:58:16;;;;;;;11.88;10.43;;;19.70;85.00;;;;;;4983732;28;20037;-75
2022/05/11 01:00:45;;;;;;;11.98;10.77;;;19.60;84.80;;;;;;4988204;28;20495;-75
2022/05/11 01:03:17;;;;;;;11.82;10.52;;;19.70;84.80;;;;;;5002296;28;20465;-76
2022/05/11 01:05:44;;;;;;;10.98;9.93;;;19.60;84.80;;;;;;5001603;28;20033;-76
2022/05/11 01:08:12;;;;;;;12.55;10.98;;;19.60;85.00;;;;;;4993018;28;20034;-75
2022/05/11 01:10:38;;;;;;;11.77;10.65;;;19.60;84.60;;;;;;4984208;28;20057;-76
2022/05/11 01:13:08;;;;;;;11.55;10.45;;;19.70;85.30;;;;;;4968546;28;20470;-76
2022/05/11 01:15:34;;;;;;;11.80;10.20;;;19.60;84.60;;;;;;4968411;28;20105;-75
2022/05/11 01:18:06;;;;;;;13.05;10.80;;;19.70;84.70;;;;;;4984774;28;20541;-76
2022/05/11 01:20:35;;;;;;;11.88;10.70;;;19.70;85.90;;;;;;5002632;28;20030;-75
2022/05/11 01:23:10;;;;;;;14.18;11.80;;;19.70;86.20;;;;;;4985360;28;20034;-74
2022/05/11 01:25:36;;;;;;;11.85;10.80;;;19.60;86.20;;;;;;4985936;28;20049;-76
2022/05/11 01:28:13;;;;;;;11.15;10.05;;;19.40;86.70;;;;;;4985096;28;20034;-75
2022/05/11 01:30:48;;;;;;;10.68;9.68;;;19.50;86.90;;;;;;4971143;28;20061;-76
2022/05/11 01:33:24;;;;;;;11.70;10.60;;;19.60;86.60;;;;;;4988905;28;20031;-77
2022/05/11 01:35:58;;;;;;;10.35;9.45;;;19.60;86.30;;;;;;5004670;28;20038;-74
2022/05/11 01:38:31;;;;;;;12.15;10.88;;;19.80;86.30;;;;;;5002102;28;20058;-75
2022/05/11 01:40:57;;;;;;;12.20;11.07;;;19.80;86.00;;;;;;5002636;28;20043;-76
2022/05/11 01:43:27;;;;;;;11.63;10.27;;;19.80;85.50;;;;;;4995445;28;20100;-76
2022/05/11 01:45:54;;;;;;;11.20;10.00;;;19.80;85.50;;;;;;5001952;28;20030;-75
2022/05/11 01:48:19;;;;;;;13.77;10.30;;;19.70;85.60;;;;;;4983977;28;20085;-75
2022/05/11 01:50:46;;;;;;;11.00;10.00;;;19.80;85.50;;;;;;5001677;28;20042;-77
2022/05/11 01:53:13;;;;;;;12.23;10.93;;;19.80;85.70;;;;;;4984978;28;20035;-77
2022/05/11 01:55:38;;;;;;;11.82;10.40;;;19.80;86.10;;;;;;4984551;28;20038;-76
2022/05/11 01:58:06;;;;;;;12.00;9.93;;;19.90;85.90;;;;;;4984142;28;20125;-76
2022/05/11 02:00:33;;;;;;;11.70;10.63;;;19.90;85.30;;;;;;4982579;28;20070;-75
2022/05/11 02:02:59;;;;;;;11.45;10.18;;;19.90;84.80;;;;;;5000315;28;20446;-76
2022/05/11 02:08:09;;;;;;;11.52;10.40;;;19.90;84.90;;;;;;4984617;28;20075;-75
2022/05/11 02:10:35;;;;;;;10.85;9.80;;;20.00;84.80;;;;;;4988605;28;20042;-76
2022/05/11 02:13:01;;;;;;;11.05;9.95;;;20.00;84.40;;;;;;5000951;28;20045;-76
2022/05/11 02:15:27;;;;;;;11.85;10.75;;;20.00;84.40;;;;;;4984740;28;20046;-75
2022/05/11 02:17:53;;;;;;;10.82;9.82;;;20.00;84.40;;;;;;4983520;28;20046;-75
2022/05/11 02:20:20;;;;;;;11.05;10.00;;;20.00;84.40;;;;;;4983440;28;20080;-75
2022/05/11 02:22:47;;;;;;;11.73;10.73;;;19.90;84.40;;;;;;4984971;28;20061;-76
2022/05/11 02:25:15;;;;;;;11.07;10.05;;;19.90;84.30;;;;;;4984427;28;20034;-76
2022/05/11 02:27:42;;;;;;;11.70;10.52;;;20.00;84.10;;;;;;4968407;28;20129;-76
2022/05/11 02:30:10;;;;;;;11.82;10.57;;;19.90;84.00;;;;;;4999072;28;20044;-75
2022/05/11 02:32:36;;;;;;;11.88;10.70;;;19.90;84.30;;;;;;4983098;28;20045;-75
2022/05/11 02:35:12;;;;;;;11.70;10.63;;;19.80;84.20;;;;;;5001596;28;20023;-75
2022/05/11 02:37:48;;;;;;;12.30;10.85;;;19.80;84.40;;;;;;5000708;28;20088;-77
2022/05/11 02:40:17;;;;;;;13.85;10.95;;;19.70;84.70;;;;;;5001339;28;20456;-76
2022/05/11 02:42:43;;;;;;;12.75;11.35;;;19.60;85.70;;;;;;4989381;28;20023;-74
2022/05/11 02:45:09;;;;;;;12.77;11.48;;;19.60;85.10;;;;;;4977389;28;20034;-75
2022/05/11 02:47:35;;;;;;;13.45;12.15;;;19.60;85.30;;;;;;4967605;28;20053;-74
2022/05/11 02:50:03;;;;;;;12.75;11.50;;;19.50;85.60;;;;;;4981969;28;20058;-75
2022/05/11 02:52:30;;;;;;;12.27;11.00;;;19.50;85.70;;;;;;4967997;28;20037;-75
2022/05/11 02:54:55;;;;;;;12.73;11.43;;;19.40;86.00;;;;;;5001478;28;20030;-75
2022/05/11 02:57:21;;;;;;;12.80;11.50;;;19.40;86.00;;;;;;4982358;28;20042;-75
2022/05/11 02:59:49;;;;;;;13.02;11.75;;;19.40;86.10;;;;;;5000647;28;20037;-76
2022/05/11 03:02:18;;;;;;;12.70;11.20;;;19.40;86.40;;;;;;4984030;28;20057;-75
2022/05/11 03:04:44;;;;;;;12.55;11.15;;;19.40;86.50;;;;;;4982705;28;20089;-75
2022/05/11 03:07:09;;;;;;;12.25;11.15;;;19.50;86.50;;;;;;4970740;28;20030;-74
2022/05/11 03:09:35;;;;;;;12.00;10.68;;;19.40;86.70;;;;;;4985891;28;20035;-75
2022/05/11 03:12:01;;;;;;;12.93;11.25;;;19.50;86.50;;;;;;4981835;28;20104;-76
2022/05/11 03:14:26;;;;;;;12.10;11.00;;;19.50;86.30;;;;;;4980645;28;20048;-74
2022/05/11 03:16:52;;;;;;;12.68;11.48;;;19.50;86.60;;;;;;4981151;28;20057;-74
2022/05/11 03:19:18;;;;;;;12.00;10.80;;;19.50;86.40;;;;;;4999718;28;20042;-75
2022/05/11 03:21:43;;;;;;;13.40;12.00;;;19.40;86.50;;;;;;4999547;28;20634;-75
2022/05/11 03:24:09;;;;;;;12.80;11.48;;;19.40;86.60;;;;;;4982436;28;20049;-76
2022/05/11 03:26:35;;;;;;;12.57;11.27;;;19.30;87.00;;;;;;4983251;28;20037;-76
2022/05/11 03:29:05;;;;;;;12.82;11.65;;;19.30;87.20;;;;;;4999722;28;20026;-75
2022/05/11 03:31:35;;;;;;;13.02;10.82;;;19.40;87.30;;;;;;5001173;28;20038;-75
2022/05/11 03:36:47;;;;;;;12.45;11.20;;;19.30;87.20;;;;;;5005216;28;20027;-74
2022/05/11 03:39:15;;;;;;;13.15;11.80;;;19.20;87.70;;;;;;4993294;28;20458;-74
2022/05/11 03:41:41;;;;;;;12.80;11.65;;;19.20;87.80;;;;;;4990645;28;20072;-75
2022/05/11 03:44:06;;;;;;;13.05;11.80;;;19.20;88.00;;;;;;4990191;28;20563;-76
2022/05/11 03:46:32;;;;;;;12.70;11.45;;;19.30;88.10;;;;;;4971600;28;20209;-75
2022/05/11 03:48:58;;;;;;;13.00;11.68;;;19.30;88.00;;;;;;4985594;28;20066;-74
2022/05/11 03:51:24;;;;;;;12.45;11.35;;;19.30;88.10;;;;;;4986577;28;20058;-74
2022/05/11 03:53:49;;;;;;;14.43;13.15;;;19.20;87.90;;;;;;5002716;28;20442;-75
2022/05/11 03:56:18;;;;;;;13.63;12.23;;;19.30;88.30;;;;;;5005638;28;20054;-75
2022/05/11 03:58:46;;;;;;;14.00;12.63;;;19.30;88.50;;;;;;5003571;28;20042;-74
2022/05/11 04:01:14;;;;;;;13.65;12.25;;;19.30;88.50;;;;;;4984020;28;20471;-75
2022/05/11 04:03:40;;;;;;;13.20;11.90;;;19.20;88.70;;;;;;4984406;28;20099;-75
2022/05/11 04:06:06;;;;;;;13.48;12.10;;;19.30;88.60;;;;;;4985219;28;20053;-74
2022/05/11 04:08:32;;;;;;;14.27;12.85;;;19.30;89.10;;;;;;4986363;28;20030;-74
2022/05/11 04:10:57;;;;;;;13.90;12.55;;;19.20;89.30;;;;;;5002022;28;20038;-75
2022/05/11 04:13:24;;;;;;;12.90;11.80;;;19.20;89.20;;;;;;4967733;28;20038;-75
2022/05/11 04:15:51;;;;;;;14.45;11.98;;;19.20;89.30;;;;;;5002592;28;20050;-75
2022/05/11 04:18:18;;;;;;;14.48;12.90;;;19.30;89.20;;;;;;4986498;28;20554;-75
2022/05/11 04:20:44;;;;;;;19.83;13.65;;;19.30;90.00;;;;;;5004119;28;20586;-75
2022/05/11 04:23:10;;;;;;;18.30;13.35;;;19.40;90.20;;;;;;4969864;28;20041;-74
2022/05/11 04:25:36;;;;;;;36.90;15.27;;;19.40;90.10;;;;;;4983943;28;20030;-74
2022/05/11 04:28:02;;;;;;;22.92;13.15;;;19.40;90.10;;;;;;4984439;28;20474;-75
2022/05/11 04:30:31;;;;;;;14.48;12.18;;;19.50;90.30;;;;;;4985125;28;20046;-76
2022/05/11 04:32:58;;;;;;;13.63;11.77;;;19.50;90.70;;;;;;4986933;28;20041;-75
2022/05/11 04:35:30;;;;;;;16.13;13.07;;;19.50;91.10;;;;;;5004058;28;20026;-75
2022/05/11 04:37:57;;;;;;;17.48;13.45;;;19.60;91.30;;;;;;4986528;28;20038;-76
2022/05/11 04:40:23;;;;;;;33.83;16.67;;;19.60;91.20;;;;;;4985776;28;20034;-76
2022/05/11 04:42:49;;;;;;;30.23;14.50;;;19.60;91.40;;;;;;5003805;28;20073;-76
2022/05/11 04:45:15;;;;;;;15.50;12.82;;;19.60;90.90;;;;;;4986692;28;20057;-74
2022/05/11 04:47:41;;;;;;;20.55;12.75;;;19.70;91.20;;;;;;5001694;28;20027;-76
2022/05/11 04:50:08;;;;;;;17.70;12.55;;;19.70;91.50;;;;;;4985525;28;20061;-75
2022/05/11 04:52:34;;;;;;;17.73;14.05;;;19.70;91.80;;;;;;4985853;28;20034;-74
2022/05/11 04:55:00;;;;;;;14.05;12.85;;;19.70;91.80;;;;;;4984076;28;20098;-75
2022/05/11 04:57:26;;;;;;;18.40;12.50;;;19.60;91.90;;;;;;5002230;28;20052;-75
2022/05/11 04:59:52;;;;;;;16.38;13.70;;;19.60;92.00;;;;;;5000478;28;20034;-74
2022/05/11 05:02:23;;;;;;;14.45;12.95;;;19.50;91.90;;;;;;4977759;28;20069;-76
2022/05/11 05:04:50;;;;;;;16.52;13.38;;;19.50;91.60;;;;;;4987279;28;20034;-77
2022/05/11 05:07:16;;;;;;;23.65;15.65;;;19.60;91.30;;;;;;5000906;28;20432;-75
2022/05/11 05:09:42;;;;;;;17.75;15.23;;;19.60;91.30;;;;;;5000809;28;20042;-75
2022/05/11 05:12:09;;;;;;;16.35;12.63;;;19.70;91.10;;;;;;4982772;28;20034;-74
2022/05/11 05:14:34;;;;;;;13.13;11.93;;;19.70;90.60;;;;;;5001599;28;20038;-75
2022/05/11 05:17:06;;;;;;;13.95;11.77;;;19.70;90.70;;;;;;4983968;28;20089;-76
2022/05/11 05:19:32;;;;;;;12.75;11.45;;;19.80;90.70;;;;;;4999478;28;20041;-75
2022/05/11 05:21:59;;;;;;;13.93;12.57;;;19.90;90.70;;;;;;5001280;28;20042;-76
2022/05/11 05:24:24;;;;;;;28.42;15.07;;;20.00;90.80;;;;;;4985057;28;20041;-75
2022/05/11 05:26:50;;;;;;;54.10;17.45;;;20.10;90.80;;;;;;4984674;28;20034;-76
2022/05/11 05:32:01;;;;;;;21.15;12.73;;;20.30;90.60;;;;;;5002240;28;20065;-76
2022/05/11 05:34:29;;;;;;;15.73;12.63;;;20.40;90.50;;;;;;4967894;28;20117;-77
2022/05/11 05:36:54;;;;;;;15.27;11.63;;;20.40;90.30;;;;;;4995276;28;20106;-76
2022/05/11 05:39:20;;;;;;;14.43;12.15;;;20.50;90.20;;;;;;4988287;28;20039;-74
2022/05/11 05:41:45;;;;;;;13.35;12.00;;;20.60;90.00;;;;;;4982872;28;20030;-75
2022/05/11 05:44:11;;;;;;;16.38;12.93;;;20.60;90.00;;;;;;4971349;28;20509;-76
2022/05/11 05:46:37;;;;;;;25.15;13.20;;;20.60;90.10;;;;;;4984132;28;20046;-76
2022/05/11 05:49:03;;;;;;;13.75;12.32;;;20.60;90.30;;;;;;4967738;28;20038;-75
2022/05/11 05:51:29;;;;;;;15.63;12.02;;;20.50;90.30;;;;;;5003423;28;20120;-75
2022/05/11 05:53:55;;;;;;;13.70;12.30;;;20.50;90.50;;;;;;5003294;28;20108;-76
2022/05/11 05:56:21;;;;;;;17.75;12.27;;;20.60;90.60;;;;;;4999979;28;20034;-75
2022/05/11 05:58:47;;;;;;;12.93;11.40;;;20.70;90.50;;;;;;4996541;28;20101;-73
2022/05/11 06:01:14;;;;;;;12.98;11.60;;;20.70;90.40;;;;;;4997518;28;20065;-74
2022/05/11 06:03:40;;;;;;;16.08;13.10;;;20.90;90.60;;;;;;5000712;28;20018;-74
2022/05/11 06:06:08;;;;;;;15.25;12.23;;;21.00;90.70;;;;;;4983761;28;20092;-76
2022/05/11 06:08:34;;;;;;;31.83;15.45;;;21.00;90.70;;;;;;4989549;28;20034;-71
2022/05/11 06:11:00;;;;;;;29.65;16.38;;;21.10;90.70;;;;;;4997466;28;20066;-72
2022/05/11 06:13:27;;;;;;;32.00;14.65;;;21.20;90.30;;;;;;4979407;28;20070;-71
2022/05/11 06:15:54;;;;;;;20.15;12.65;;;21.20;89.10;;;;;;4980928;28;20043;-70
2022/05/11 06:18:21;;;;;;;15.27;10.20;;;21.20;87.70;;;;;;4974316;28;20041;-71
2022/05/11 06:20:51;;;;;;;17.92;11.43;;;21.20;85.60;;;;;;4980270;28;20053;-70
2022/05/11 06:23:17;;;;;;;15.10;10.23;;;21.20;85.50;;;;;;5000143;28;20060;-74
2022/05/11 06:25:43;;;;;;;18.88;11.38;;;21.30;85.40;;;;;;4981224;28;20030;-75
2022/05/11 06:28:09;;;;;;;15.13;10.13;;;21.30;85.60;;;;;;4999634;28;20231;-76
2022/05/11 06:30:35;;;;;;;15.65;9.98;;;21.30;85.00;;;;;;4982685;28;20030;-74
2022/05/11 06:33:02;;;;;;;16.30;9.35;;;21.30;84.80;;;;;;4977142;28;20038;-75
2022/05/11 06:35:28;;;;;;;28.17;15.02;;;21.30;84.30;;;;;;5002320;28;20046;-75
2022/05/11 06:37:54;;;;;;;13.68;9.80;;;21.30;84.50;;;;;;4963901;28;20039;-75
2022/05/11 06:40:21;;;;;;;22.48;11.15;;;21.40;85.00;;;;;;5003341;28;20034;-74
2022/05/11 06:42:49;;;;;;;16.67;9.80;;;21.50;84.50;;;;;;5003632;28;20045;-76
2022/05/11 06:45:15;;;;;;;10.27;9.27;;;21.50;84.20;;;;;;4969216;28;20449;-76
2022/05/11 06:47:41;;;;;;;12.18;9.38;;;21.50;84.50;;;;;;4983414;28;20061;-76
2022/05/11 06:50:08;;;;;;;14.82;10.05;;;21.50;85.00;;;;;;5000468;28;20033;-74
2022/05/11 06:52:34;;;;;;;22.98;9.43;;;21.50;84.90;;;;;;5002826;28;20026;-74
2022/05/11 07:00:30;;;;;;;36.85;11.95;;;21.30;84.70;;;;;;4983067;28;20034;-74
2022/05/11 07:02:56;;;;;;;15.20;9.23;;;21.50;85.30;;;;;;4974126;28;20098;-74
2022/05/11 07:05:22;;;;;;;21.30;10.73;;;21.60;84.20;;;;;;4966297;28;20054;-74
2022/05/11 07:07:47;;;;;;;12.07;8.60;;;21.60;84.10;;;;;;4995821;28;20059;-75
2022/05/11 07:10:13;;;;;;;15.20;9.45;;;21.60;84.40;;;;;;4963653;28;20114;-74
2022/05/11 07:12:45;;;;;;;15.02;9.63;;;21.60;84.80;;;;;;4987442;28;20026;-75
2022/05/11 07:15:13;;;;;;;9.55;8.65;;;21.50;85.30;;;;;;4988376;28;20034;-74
2022/05/11 07:17:42;;;;;;;11.93;8.30;;;21.50;85.10;;;;;;4990563;28;20025;-74
2022/05/11 07:20:12;;;;;;;17.20;9.82;;;21.70;84.20;;;;;;4953095;28;20035;-74
2022/05/11 07:22:38;;;;;;;11.25;8.07;;;21.80;85.40;;;;;;4990703;28;20026;-75
2022/05/11 07:25:05;;;;;;;13.02;8.80;;;21.90;84.90;;;;;;4977615;28;20023;-74
2022/05/11 07:27:31;;;;;;;8.82;8.00;;;22.00;84.40;;;;;;4987290;28;20042;-74
2022/05/11 07:29:57;;;;;;;15.73;7.85;;;22.00;83.30;;;;;;5000368;28;20045;-74
2022/05/11 07:32:23;;;;;;;11.15;8.02;;;22.10;83.30;;;;;;4980857;28;20077;-74
2022/05/11 07:34:50;;;;;;;12.93;8.63;;;22.20;83.10;;;;;;5001380;28;20051;-74
2022/05/11 07:37:15;;;;;;;7.60;6.85;;;22.30;82.70;;;;;;4982692;28;20034;-74
2022/05/11 07:39:41;;;;;;;10.25;7.57;;;22.30;83.00;;;;;;4982687;28;20037;-74
2022/05/11 07:42:07;;;;;;;10.25;7.40;;;22.40;82.80;;;;;;4984479;28;20061;-74
2022/05/11 07:44:34;;;;;;;9.07;7.55;;;22.40;82.30;;;;;;4972455;28;20066;-76
2022/05/11 07:46:59;;;;;;;9.38;6.97;;;22.50;82.40;;;;;;5000181;28;20026;-74
2022/05/11 07:49:25;;;;;;;12.98;7.40;;;22.70;81.70;;;;;;4980930;28;20093;-78
2022/05/11 07:51:52;;;;;;;8.40;7.40;;;22.60;81.10;;;;;;4997588;28;20049;-75
2022/05/11 07:54:19;;;;;;;11.40;7.22;;;22.60;81.00;;;;;;4981173;28;20053;-75
2022/05/11 08:02:14;;;;;;;9.65;7.85;;;22.80;81.40;;;;;;4985917;28;20045;-76
2022/05/11 08:04:41;;;;;;;8.10;6.75;;;22.90;81.50;;;;;;4983173;28;20118;-75
2022/05/11 08:07:07;;;;;;;8.77;6.70;;;23.00;80.00;;;;;;4968728;28;20038;-76
2022/05/11 08:09:33;;;;;;;7.07;6.45;;;23.00;80.10;;;;;;4985838;28;20046;-75
2022/05/11 08:11:58;;;;;;;9.40;7.85;;;23.10;79.80;;;;;;4966170;28;20039;-77
2022/05/11 08:14:24;;;;;;;15.85;6.80;;;23.30;80.60;;;;;;4949084;28;20039;-77
2022/05/11 08:16:52;;;;;;;7.28;6.60;;;23.30;80.00;;;;;;4984101;28;20043;-76
2022/05/11 08:19:23;;;;;;;8.70;6.80;;;23.30;78.90;;;;;;4984822;28;20041;-77
2022/05/11 08:21:50;;;;;;;7.97;6.43;;;23.40;79.30;;;;;;5003896;28;20089;-77
2022/05/11 08:24:16;;;;;;;12.40;6.75;;;23.40;79.60;;;;;;5005114;28;20054;-77
2022/05/11 08:26:42;;;;;;;12.52;7.07;;;23.50;79.70;;;;;;4987629;28;20026;-76
2022/05/11 08:29:09;;;;;;;12.70;6.38;;;23.70;79.10;;;;;;5002923;28;20085;-76
2022/05/11 08:34:19;;;;;;;7.18;6.45;;;23.70;78.00;;;;;;4991476;28;20121;-76
2022/05/11 08:36:45;;;;;;;7.28;6.22;;;23.80;77.60;;;;;;4987052;28;20062;-77
2022/05/11 08:39:12;;;;;;;7.93;5.93;;;23.80;77.70;;;;;;4989303;28;20050;-76
2022/05/11 08:41:47;;;;;;;8.02;6.10;;;23.90;78.00;;;;;;4986894;28;20113;-76
2022/05/11 08:44:23;;;;;;;14.88;7.15;;;24.10;77.70;;;;;;5000723;28;20139;-76
2022/05/11 08:47:21;;;;;;;12.65;6.38;;;24.10;76.30;;;;;;5001190;28;20062;-75
2022/05/11 08:50:09;;;;;;;7.80;7.00;;;24.10;76.10;;;;;;5002619;28;20042;-76
2022/05/11 08:52:47;;;;;;;10.75;6.30;;;24.10;76.70;;;;;;5001036;28;20035;-76
2022/05/11 08:55:41;;;;;;;9.95;5.90;;;24.20;76.70;;;;;;5003754;28;20040;-76
2022/05/11 08:58:41;;;;;;;8.63;6.18;;;24.50;76.70;;;;;;5004434;28;20042;-77
2022/05/11 09:01:14;;;;;;;8.55;5.70;;;24.70;76.20;;;;;;5002362;28;20033;-76
2022/05/11 09:03:43;;;;;;;10.98;5.50;;;24.80;75.60;;;;;;5005242;28;20053;-76
2022/05/11 09:06:19;;;;;;;17.77;6.80;;;24.60;74.40;;;;;;5004181;28;20034;-76
2022/05/11 09:08:46;;;;;;;6.40;5.47;;;24.60;74.40;;;;;;5003326;28;20026;-76
2022/05/11 09:11:14;;;;;;;14.63;6.85;;;24.80;73.80;;;;;;4987487;28;20042;-76
2022/05/11 09:13:42;;;;;;;10.25;6.47;;;24.80;73.70;;;;;;5002704;28;20528;-76
2022/05/11 09:16:19;;;;;;;8.77;5.68;;;24.90;74.00;;;;;;4985555;28;20069;-75
2022/05/11 09:18:45;;;;;;;10.30;6.32;;;24.80;73.10;;;;;;5001915;28;20041;-75
2022/05/11 09:21:32;;;;;;;7.03;5.80;;;25.10;73.50;;;;;;4985593;28;20093;-75
2022/05/11 09:24:08;;;;;;;15.60;5.60;;;25.30;70.50;;;;;;5002951;28;20026;-75
2022/05/11 09:26:38;;;;;;;8.65;5.45;;;25.20;71.70;;;;;;5002219;28;20026;-75
2022/05/11 09:29:23;;;;;;;6.95;5.72;;;25.50;71.30;;;;;;5002073;28;20029;-76
2022/05/11 09:31:51;;;;;;;12.82;5.70;;;25.50;70.40;;;;;;4984513;28;20030;-76
2022/05/11 09:34:26;;;;;;;15.15;5.95;;;25.50;70.70;;;;;;4985806;28;20042;-77
2022/05/11 09:36:57;;;;;;;8.45;5.70;;;25.50;70.40;;;;;;4985338;28;20034;-76
2022/05/11 09:39:24;;;;;;;6.50;5.38;;;25.70;70.90;;;;;;5001773;28;20549;-76
2022/05/11 09:41:51;;;;;;;7.88;5.53;;;25.60;69.00;;;;;;5001134;28;20031;-76
2022/05/11 09:44:24;;;;;;;14.05;6.68;;;25.60;69.70;;;;;;4999276;28;20101;-75
2022/05/11 09:46:50;;;;;;;21.65;6.22;;;25.50;69.10;;;;;;4986126;28;20042;-75
2022/05/11 09:49:19;;;;;;;13.55;5.60;;;25.50;69.00;;;;;;4984512;28;20513;-76
2022/05/11 09:51:45;;;;;;;9.68;5.47;;;25.50;68.80;;;;;;5000519;28;20049;-76
2022/05/11 09:54:38;;;;;;;6.88;4.95;;;25.40;68.50;;;;;;5000099;28;20027;-76
2022/05/11 09:57:17;;;;;;;12.15;5.82;;;25.50;68.60;;;;;;4999632;28;20382;-75
2022/05/11 09:59:49;;;;;;;7.47;5.18;;;25.60;68.20;;;;;;5002696;28;20018;-75
2022/05/11 10:02:24;;;;;;;8.38;6.03;;;25.40;69.30;;;;;;4998393;28;20045;-75
2022/05/11 10:04:59;;;;;;;6.82;5.45;;;25.70;69.50;;;;;;4998465;28;20030;-76
2022/05/11 10:07:28;;;;;;;9.27;5.88;;;25.80;68.90;;;;;;5000694;28;20053;-75
2022/05/11 10:10:01;;;;;;;9.45;6.13;;;25.80;69.40;;;;;;4976305;28;20042;-76
2022/05/11 10:12:29;;;;;;;10.55;5.75;;;26.10;69.10;;;;;;4989503;28;20133;-74
2022/05/11 10:23:35;;;;;;;7.93;5.60;;;26.10;66.70;;;;;;4999273;28;20027;-72
2022/05/11 10:26:07;;;;;;;11.15;5.65;;;26.00;67.50;;;;;;4982898;28;20031;-72
2022/05/11 10:29:03;;;;;;;9.27;5.22;;;26.00;66.80;;;;;;4980690;28;20489;-72
2022/05/11 10:31:50;;;;;;;12.82;5.60;;;26.00;66.50;;;;;;4987658;28;20014;-73
2022/05/11 10:34:21;;;;;;;11.43;6.03;;;26.00;67.00;;;;;;5000067;28;20034;-72
2022/05/11 10:37:04;;;;;;;10.77;5.53;;;26.10;66.30;;;;;;4997984;28;20111;-73
2022/05/11 10:40:05;;;;;;;7.85;5.32;;;26.00;67.50;;;;;;5000723;28;20058;-73
2022/05/11 10:42:36;;;;;;;6.32;5.18;;;26.30;67.20;;;;;;4986739;28;20035;-73
2022/05/11 10:45:10;;;;;;;6.78;5.40;;;26.50;66.70;;;;;;4999723;28;20026;-73
2022/05/11 10:48:13;;;;;;;8.63;5.60;;;26.50;65.50;;;;;;4999726;28;20539;-72
2022/05/11 10:51:00;;;;;;;7.28;5.43;;;26.50;65.30;;;;;;5000299;28;20026;-75
2022/05/11 10:53:43;;;;;;;8.30;5.70;;;26.40;65.40;;;;;;4983924;28;20519;-73
2022/05/11 10:56:20;;;;;;;11.20;5.28;;;26.40;66.10;;;;;;4998749;28;20374;-74
2022/05/11 10:59:20;;;;;;;10.73;5.18;;;26.30;67.70;;;;;;4993963;28;20390;-76
2022/05/11 11:02:23;;;;;;;7.45;5.47;;;26.20;64.70;;;;;;5000993;28;20053;-75
2022/05/11 11:05:09;;;;;;;7.47;5.45;;;26.20;65.60;;;;;;4986700;28;20085;-75
2022/05/11 11:07:49;;;;;;;7.85;5.45;;;26.20;66.00;;;;;;4973191;28;20114;-75
2022/05/11 11:10:40;;;;;;;9.23;5.90;;;26.40;65.00;;;;;;4999286;28;20026;-75
2022/05/11 11:13:20;;;;;;;5.82;5.22;;;26.30;65.70;;;;;;4974947;28;20038;-75
2022/05/11 11:15:46;;;;;;;20.27;6.10;;;26.40;65.00;;;;;;4981363;28;20116;-75
2022/05/11 11:18:16;;;;;;;11.18;5.68;;;26.60;63.00;;;;;;4997311;28;20100;-74
2022/05/11 11:20:45;;;;;;;6.88;5.25;;;26.60;63.20;;;;;;4996179;28;20030;-74
2022/05/11 11:23:16;;;;;;;7.85;5.15;;;26.50;64.00;;;;;;4981530;28;20060;-75
2022/05/11 11:25:52;;;;;;;11.82;5.32;;;26.50;65.10;;;;;;4998943;28;20030;-74
2022/05/11 11:28:20;;;;;;;5.07;4.65;;;26.60;63.90;;;;;;4998548;28;20061;-75
2022/05/11 11:30:58;;;;;;;5.40;4.90;;;26.80;62.90;;;;;;4982437;28;20038;-75
2022/05/11 11:33:24;;;;;;;6.35;5.40;;;26.90;62.30;;;;;;4997522;28;20613;-73
2022/05/11 11:36:03;;;;;;;7.28;5.20;;;26.80;62.40;;;;;;5000393;28;20387;-75
2022/05/11 11:38:38;;;;;;;7.38;5.40;;;26.60;63.30;;;;;;5000677;28;20030;-74
2022/05/11 11:41:22;;;;;;;14.45;5.53;;;26.70;64.00;;;;;;5001510;28;20030;-75
2022/05/11 11:43:55;;;;;;;8.50;5.25;;;26.80;63.90;;;;;;4999954;28;20042;-74
2022/05/11 11:46:40;;;;;;;8.68;5.35;;;27.00;64.40;;;;;;4981831;28;20030;-74
2022/05/11 11:49:18;;;;;;;8.18;5.35;;;27.10;63.10;;;;;;4998975;28;20486;-75
2022/05/11 11:51:56;;;;;;;6.05;5.30;;;26.90;63.10;;;;;;4981820;28;20042;-74
2022/05/11 11:54:37;;;;;;;7.25;5.10;;;27.00;63.20;;;;;;4999497;28;20147;-74
2022/05/11 11:57:14;;;;;;;7.65;5.03;;;27.00;62.70;;;;;;5000554;28;20042;-75
2022/05/11 11:59:44;;;;;;;8.65;5.28;;;27.00;62.70;;;;;;4951186;28;20042;-75
2022/05/11 12:02:30;;;;;;;7.82;5.40;;;27.00;63.00;;;;;;4990039;28;20109;-73
2022/05/11 12:05:03;;;;;;;11.13;6.05;;;27.00;63.40;;;;;;5003177;28;20027;-75
2022/05/11 12:16:17;;;;;;;7.00;5.50;;;27.50;62.80;;;;;;5004509;28;20340;-75
2022/05/11 12:18:44;;;;;;;15.00;6.50;;;27.80;62.50;;;;;;5004182;28;20049;-75
2022/05/11 12:21:30;;;;;;;15.88;7.38;;;28.00;62.80;;;;;;4986431;28;20038;-75
2022/05/11 12:23:58;;;;;;;9.43;5.50;;;28.10;60.80;;;;;;4986875;28;20037;-76
2022/05/11 12:26:31;;;;;;;7.72;5.35;;;28.10;60.00;;;;;;4987839;28;20057;-76
2022/05/11 12:31:56;;;;;;;8.30;5.00;;;27.60;60.60;;;;;;5006950;28;20049;-75
2022/05/11 12:34:23;;;;;;;8.40;4.80;;;27.40;61.60;;;;;;5005030;28;20082;-75
2022/05/11 12:36:51;;;;;;;12.60;6.03;;;27.60;60.60;;;;;;4986802;28;20148;-76
2022/05/11 12:39:31;;;;;;;8.27;5.00;;;27.40;60.80;;;;;;4987825;28;20066;-76
2022/05/11 12:41:57;;;;;;;6.88;5.00;;;27.30;60.10;;;;;;5003233;28;20030;-75
2022/05/11 12:44:30;;;;;;;7.05;5.22;;;27.30;59.90;;;;;;4966255;28;20031;-74
2022/05/11 12:46:58;;;;;;;7.75;5.22;;;27.30;60.30;;;;;;4967200;28;20042;-74
2022/05/11 12:49:26;;;;;;;8.00;4.72;;;27.40;60.90;;;;;;4982665;28;20625;-76
2022/05/11 12:52:08;;;;;;;8.52;4.75;;;27.40;60.80;;;;;;4948683;28;20035;-76
2022/05/11 12:54:34;;;;;;;11.95;5.03;;;27.40;61.90;;;;;;4965521;28;20081;-76
2022/05/11 12:57:03;;;;;;;6.60;4.72;;;27.70;61.50;;;;;;4997799;28;20097;-76
2022/05/11 12:59:31;;;;;;;8.40;4.93;;;27.90;59.70;;;;;;5003072;28;20036;-74
2022/05/11 13:02:14;;;;;;;8.02;4.80;;;27.90;58.90;;;;;;4985139;28;20030;-75
2022/05/11 13:04:58;;;;;;;6.13;5.15;;;27.90;58.30;;;;;;4985426;28;20038;-76
2022/05/11 13:07:37;;;;;;;9.40;5.32;;;27.90;59.40;;;;;;5002316;28;20082;-76
2022/05/11 13:10:06;;;;;;;7.40;4.82;;;27.70;58.00;;;;;;4991477;28;20058;-76
2022/05/11 13:12:33;;;;;;;10.65;5.40;;;27.60;58.50;;;;;;5002881;28;20133;-76
2022/05/11 13:15:01;;;;;;;13.05;5.65;;;27.80;57.80;;;;;;5003853;28;20062;-76
2022/05/11 13:17:35;;;;;;;9.00;4.80;;;28.00;57.50;;;;;;5001948;28;20127;-76
2022/05/11 13:20:25;;;;;;;6.47;4.20;;;28.10;57.10;;;;;;5003320;28;20034;-74
2022/05/11 13:22:53;;;;;;;7.78;4.82;;;27.90;58.00;;;;;;4984205;28;20046;-74
2022/05/11 13:25:44;;;;;;;7.30;4.75;;;28.00;57.30;;;;;;4984496;28;20036;-74
2022/05/11 13:28:28;;;;;;;5.45;4.78;;;28.10;57.90;;;;;;4985656;28;20034;-74
2022/05/11 13:30:57;;;;;;;8.63;5.10;;;27.90;58.60;;;;;;5001752;28;20031;-74
2022/05/11 13:33:34;;;;;;;6.40;5.30;;;27.80;59.00;;;;;;4985859;28;20410;-74